sensor_id;sensor_type;location;lat;lon;timestamp;pressure;altitude;pressure_sealevel;temperature;humidity
75627;BME280;67372;49.404;11.034;2023-10-09T00:01:40;98755.00;;;12.46;92.86
75627;BME280;67372;49.404;11.034;2023-10-09T00:04:06;98750.69;;;12.45;92.36
75627;BME280;67372;49.404;11.034;2023-10-09T00:06:33;98741.63;;;12.46;92.09
75627;BME280;67372;49.404;11.034;2023-10-09T00:08:59;98739.53;;;12.48;91.88
75627;BME280;67372;49.404;11.034;2023-10-09T00:11:26;98738.72;;;12.48;93.31
75627;BME280;67372;49.404;11.034;2023-10-09T00:13:52;98734.19;;;12.48;92.81
75627;BME280;67372;49.404;11.034;2023-10-09T00:16:20;98732.13;;;12.50;93.18
75627;BME280;67372;49.404;11.034;2023-10-09T00:18:46;98727.38;;;12.52;92.71
75627;BME280;67372;49.404;11.034;2023-10-09T00:21:14;98730.25;;;12.57;92.87
75627;BME280;67372;49.404;11.034;2023-10-09T00:23:41;98735.59;;;12.57;92.14
75627;BME280;67372;49.404;11.034;2023-10-09T00:26:08;98730.03;;;12.59;91.87
75627;BME280;67372;49.404;11.034;2023-10-09T00:28:35;98728.16;;;12.59;92.92
75627;BME280;67372;49.404;11.034;2023-10-09T00:31:05;98729.38;;;12.64;90.71
75627;BME280;67372;49.404;11.034;2023-10-09T00:33:31;98723.34;;;12.68;90.20
75627;BME280;67372;49.404;11.034;2023-10-09T00:36:04;98714.88;;;12.71;89.82
75627;BME280;67372;49.404;11.034;2023-10-09T00:38:31;98710.72;;;12.75;89.60
75627;BME280;67372;49.404;11.034;2023-10-09T00:40:57;98708.25;;;12.80;89.28
75627;BME280;67372;49.404;11.034;2023-10-09T00:43:24;98707.81;;;12.83;88.85
75627;BME280;67372;49.404;11.034;2023-10-09T00:45:50;98695.91;;;12.79;89.38
75627;BME280;67372;49.404;11.034;2023-10-09T00:48:17;98696.72;;;12.80;88.92
75627;BME280;67372;49.404;11.034;2023-10-09T00:50:44;98684.56;;;12.77;88.58
75627;BME280;67372;49.404;11.034;2023-10-09T00:53:10;98681.06;;;12.77;88.60
75627;BME280;67372;49.404;11.034;2023-10-09T00:55:38;98669.94;;;12.80;88.49
75627;BME280;67372;49.404;11.034;2023-10-09T00:58:06;98667.88;;;12.82;88.17
75627;BME280;67372;49.404;11.034;2023-10-09T01:00:35;98674.63;;;12.84;88.21
75627;BME280;67372;49.404;11.034;2023-10-09T01:03:02;98669.88;;;12.86;87.93
75627;BME280;67372;49.404;11.034;2023-10-09T01:05:29;98662.44;;;12.88;87.82
75627;BME280;67372;49.404;11.034;2023-10-09T01:07:55;98671.31;;;12.89;87.85
75627;BME280;67372;49.404;11.034;2023-10-09T01:10:21;98670.03;;;12.91;87.63
75627;BME280;67372;49.404;11.034;2023-10-09T01:12:48;98660.59;;;12.89;87.89
75627;BME280;67372;49.404;11.034;2023-10-09T01:15:14;98656.72;;;12.85;88.06
75627;BME280;67372;49.404;11.034;2023-10-09T01:17:41;98659.41;;;12.85;87.96
75627;BME280;67372;49.404;11.034;2023-10-09T01:20:07;98663.72;;;12.86;87.95
75627;BME280;67372;49.404;11.034;2023-10-09T01:22:34;98658.34;;;12.86;88.09
75627;BME280;67372;49.404;11.034;2023-10-09T01:25:00;98656.28;;;12.88;87.78
75627;BME280;67372;49.404;11.034;2023-10-09T01:27:27;98656.88;;;12.90;87.87
75627;BME280;67372;49.404;11.034;2023-10-09T01:29:53;98648.63;;;12.91;87.84
75627;BME280;67372;49.404;11.034;2023-10-09T01:32:20;98646.53;;;12.94;87.75
75627;BME280;67372;49.404;11.034;2023-10-09T01:34:46;98645.28;;;12.96;87.46
75627;BME280;67372;49.404;11.034;2023-10-09T01:37:14;98653.53;;;12.95;87.31
75627;BME280;67372;49.404;11.034;2023-10-09T01:39:41;98640.72;;;12.97;87.30
75627;BME280;67372;49.404;11.034;2023-10-09T01:42:08;98641.34;;;12.99;86.94
75627;BME280;67372;49.404;11.034;2023-10-09T01:44:35;98638.66;;;12.99;87.22
75627;BME280;67372;49.404;11.034;2023-10-09T01:47:02;98637.00;;;12.98;87.09
75627;BME280;67372;49.404;11.034;2023-10-09T01:49:28;98622.59;;;12.99;86.89
75627;BME280;67372;49.404;11.034;2023-10-09T01:51:56;98623.41;;;12.99;87.12
75627;BME280;67372;49.404;11.034;2023-10-09T01:54:22;98618.50;;;12.96;87.53
75627;BME280;67372;49.404;11.034;2023-10-09T01:56:49;98622.59;;;12.99;86.64
75627;BME280;67372;49.404;11.034;2023-10-09T01:59:15;98617.81;;;13.01;86.33
75627;BME280;67372;49.404;11.034;2023-10-09T02:01:41;98609.78;;;13.01;86.74
75627;BME280;67372;49.404;11.034;2023-10-09T02:04:08;98614.13;;;13.02;86.83
75627;BME280;67372;49.404;11.034;2023-10-09T02:06:34;98616.59;;;13.03;86.47
75627;BME280;67372;49.404;11.034;2023-10-09T02:09:01;98612.88;;;13.04;86.87
75627;BME280;67372;49.404;11.034;2023-10-09T02:11:27;98607.50;;;13.04;86.72
75627;BME280;67372;49.404;11.034;2023-10-09T02:13:53;98609.97;;;13.06;86.59
75627;BME280;67372;49.404;11.034;2023-10-09T02:16:20;98607.28;;;13.06;86.47
75627;BME280;67372;49.404;11.034;2023-10-09T02:18:46;98612.66;;;13.06;86.56
75627;BME280;67372;49.404;11.034;2023-10-09T02:21:13;98608.09;;;13.06;86.29
75627;BME280;67372;49.404;11.034;2023-10-09T02:23:40;98612.66;;;13.06;86.21
75627;BME280;67372;49.404;11.034;2023-10-09T02:26:07;98608.09;;;13.06;86.32
75627;BME280;67372;49.404;11.034;2023-10-09T02:28:35;98598.22;;;13.07;86.32
75627;BME280;67372;49.404;11.034;2023-10-09T02:31:09;98598.88;;;13.02;88.00
75627;BME280;67372;49.404;11.034;2023-10-09T02:33:36;98600.75;;;13.02;86.80
75627;BME280;67372;49.404;11.034;2023-10-09T02:36:03;98588.38;;;13.01;86.70
75627;BME280;67372;49.404;11.034;2023-10-09T02:38:29;98594.56;;;13.01;86.72
75627;BME280;67372;49.404;11.034;2023-10-09T02:40:55;98586.31;;;13.03;86.73
75627;BME280;67372;49.404;11.034;2023-10-09T02:43:22;98595.16;;;13.03;86.78
75627;BME280;67372;49.404;11.034;2023-10-09T02:45:48;98583.19;;;13.06;86.50
75627;BME280;67372;49.404;11.034;2023-10-09T02:48:15;98591.00;;;13.07;86.64
75627;BME280;67372;49.404;11.034;2023-10-09T02:50:41;98591.00;;;13.07;86.36
75627;BME280;67372;49.404;11.034;2023-10-09T02:53:07;98587.28;;;13.08;86.09
75627;BME280;67372;49.404;11.034;2023-10-09T02:55:34;98582.97;;;13.07;86.25
75627;BME280;67372;49.404;11.034;2023-10-09T02:58:00;98578.06;;;13.04;86.33
75627;BME280;67372;49.404;11.034;2023-10-09T03:00:27;98574.56;;;13.04;86.14
75627;BME280;67372;49.404;11.034;2023-10-09T03:02:53;98570.47;;;13.01;86.39
75627;BME280;67372;49.404;11.034;2023-10-09T03:05:19;98575.19;;;12.99;86.77
75627;BME280;67372;49.404;11.034;2023-10-09T03:07:46;98576.25;;;12.98;86.61
75627;BME280;67372;49.404;11.034;2023-10-09T03:10:12;98571.91;;;12.97;86.61
75627;BME280;67372;49.404;11.034;2023-10-09T03:12:38;98575.88;;;12.95;86.93
75627;BME280;67372;49.404;11.034;2023-10-09T03:15:05;98581.44;;;12.93;87.02
75627;BME280;67372;49.404;11.034;2023-10-09T03:17:32;98584.34;;;12.91;87.12
75627;BME280;67372;49.404;11.034;2023-10-09T03:19:58;98586.22;;;12.91;86.83
75627;BME280;67372;49.404;11.034;2023-10-09T03:22:25;98575.28;;;12.93;86.68
75627;BME280;67372;49.404;11.034;2023-10-09T03:24:51;98573.41;;;12.93;86.60
75627;BME280;67372;49.404;11.034;2023-10-09T03:27:18;98571.78;;;12.92;86.46
75627;BME280;67372;49.404;11.034;2023-10-09T03:29:45;98566.66;;;12.90;86.28
75627;BME280;67372;49.404;11.034;2023-10-09T03:32:11;98561.50;;;12.89;86.38
75627;BME280;67372;49.404;11.034;2023-10-09T03:34:37;98562.19;;;12.84;86.72
75627;BME280;67372;49.404;11.034;2023-10-09T03:37:04;98560.78;;;12.82;86.43
75627;BME280;67372;49.404;11.034;2023-10-09T03:39:31;98563.09;;;12.78;86.45
75627;BME280;67372;49.404;11.034;2023-10-09T03:41:58;98562.31;;;12.71;86.40
75627;BME280;67372;49.404;11.034;2023-10-09T03:44:25;98566.69;;;12.66;86.62
75627;BME280;67372;49.404;11.034;2023-10-09T03:46:51;98562.81;;;12.62;86.66
75627;BME280;67372;49.404;11.034;2023-10-09T03:49:18;98555.25;;;12.58;86.70
75627;BME280;67372;49.404;11.034;2023-10-09T03:51:44;98542.72;;;12.52;87.09
75627;BME280;67372;49.404;11.034;2023-10-09T03:54:11;98540.72;;;12.48;86.60
75627;BME280;67372;49.404;11.034;2023-10-09T03:56:38;98552.88;;;12.44;86.70
75627;BME280;67372;49.404;11.034;2023-10-09T03:59:04;98547.38;;;12.39;86.61
75627;BME280;67372;49.404;11.034;2023-10-09T04:01:30;98538.97;;;12.35;86.59
75627;BME280;67372;49.404;11.034;2023-10-09T04:03:58;98544.16;;;12.30;86.55
75627;BME280;67372;49.404;11.034;2023-10-09T04:06:29;98544.00;;;12.25;87.10
75627;BME280;67372;49.404;11.034;2023-10-09T04:09:06;98540.34;;;12.19;87.20
75627;BME280;67372;49.404;11.034;2023-10-09T04:11:32;98542.84;;;12.14;87.13
75627;BME280;67372;49.404;11.034;2023-10-09T04:13:59;98545.97;;;12.11;87.39
75627;BME280;67372;49.404;11.034;2023-10-09T04:16:25;98541.28;;;12.07;87.92
75627;BME280;67372;49.404;11.034;2023-10-09T04:18:51;98549.69;;;12.04;87.17
75627;BME280;67372;49.404;11.034;2023-10-09T04:21:18;98548.50;;;11.99;87.58
75627;BME280;67372;49.404;11.034;2023-10-09T04:23:46;98543.59;;;11.96;87.78
75627;BME280;67372;49.404;11.034;2023-10-09T04:26:12;98539.72;;;11.92;87.61
75627;BME280;67372;49.404;11.034;2023-10-09T04:28:38;98541.19;;;11.88;87.75
75627;BME280;67372;49.404;11.034;2023-10-09T04:31:05;98541.84;;;11.84;87.71
75627;BME280;67372;49.404;11.034;2023-10-09T04:33:31;98548.63;;;11.80;87.66
75627;BME280;67372;49.404;11.034;2023-10-09T04:36:05;98550.88;;;11.76;87.92
75627;BME280;67372;49.404;11.034;2023-10-09T04:38:32;98544.13;;;11.74;88.11
75627;BME280;67372;49.404;11.034;2023-10-09T04:40:58;98549.69;;;11.72;87.85
75627;BME280;67372;49.404;11.034;2023-10-09T04:43:24;98545.38;;;11.71;87.47
75627;BME280;67372;49.404;11.034;2023-10-09T04:45:51;98540.69;;;11.66;87.90
75627;BME280;67372;49.404;11.034;2023-10-09T04:48:17;98551.59;;;11.65;88.02
75627;BME280;67372;49.404;11.034;2023-10-09T04:50:43;98538.66;;;11.62;87.66
75627;BME280;67372;49.404;11.034;2023-10-09T04:53:10;98534.56;;;11.59;87.93
75627;BME280;67372;49.404;11.034;2023-10-09T04:55:36;98539.28;;;11.57;87.82
75627;BME280;67372;49.404;11.034;2023-10-09T04:58:03;98526.34;;;11.54;88.02
75627;BME280;67372;49.404;11.034;2023-10-09T05:00:29;98536.44;;;11.52;87.77
75627;BME280;67372;49.404;11.034;2023-10-09T05:02:57;98533.16;;;11.50;87.71
75627;BME280;67372;49.404;11.034;2023-10-09T05:05:26;98533.59;;;11.47;88.66
75627;BME280;67372;49.404;11.034;2023-10-09T05:07:52;98529.94;;;11.42;88.52
75627;BME280;67372;49.404;11.034;2023-10-09T05:10:18;98534.66;;;11.40;88.46
75627;BME280;67372;49.404;11.034;2023-10-09T05:12:45;98526.88;;;11.38;88.61
75627;BME280;67372;49.404;11.034;2023-10-09T05:15:11;98524.59;;;11.35;89.20
75627;BME280;67372;49.404;11.034;2023-10-09T05:17:38;98526.06;;;11.31;88.76
75627;BME280;67372;49.404;11.034;2023-10-09T05:20:08;98536.75;;;11.31;89.68
75627;BME280;67372;49.404;11.034;2023-10-09T05:22:34;98533.25;;;11.30;89.28
75627;BME280;67372;49.404;11.034;2023-10-09T05:25:01;98541.25;;;11.30;89.09
75627;BME280;67372;49.404;11.034;2023-10-09T05:27:27;98534.50;;;11.28;89.78
75627;BME280;67372;49.404;11.034;2023-10-09T05:29:53;98539.84;;;11.28;89.36
75627;BME280;67372;49.404;11.034;2023-10-09T05:32:20;98541.91;;;11.26;89.85
75627;BME280;67372;49.404;11.034;2023-10-09T05:34:46;98534.94;;;11.25;89.24
75627;BME280;67372;49.404;11.034;2023-10-09T05:37:13;98542.94;;;11.25;89.54
75627;BME280;67372;49.404;11.034;2023-10-09T05:39:39;98550.94;;;11.25;89.48
75627;BME280;67372;49.404;11.034;2023-10-09T05:42:05;98557.31;;;11.24;89.89
75627;BME280;67372;49.404;11.034;2023-10-09T05:44:32;98554.66;;;11.24;90.21
75627;BME280;67372;49.404;11.034;2023-10-09T05:46:58;98563.69;;;11.23;90.42
75627;BME280;67372;49.404;11.034;2023-10-09T05:49:24;98561.03;;;11.23;89.94
75627;BME280;67372;49.404;11.034;2023-10-09T05:51:51;98551.16;;;11.23;90.31
75627;BME280;67372;49.404;11.034;2023-10-09T05:54:17;98549.91;;;11.26;91.23
75627;BME280;67372;49.404;11.034;2023-10-09T05:56:44;98551.13;;;11.30;91.86
75627;BME280;67372;49.404;11.034;2023-10-09T05:59:10;98546.19;;;11.33;91.27
75627;BME280;67372;49.404;11.034;2023-10-09T06:01:36;98544.75;;;11.37;91.41
75627;BME280;67372;49.404;11.034;2023-10-09T06:04:03;98544.72;;;11.44;91.19
75627;BME280;67372;49.404;11.034;2023-10-09T06:06:30;98554.09;;;11.53;90.81
75627;BME280;67372;49.404;11.034;2023-10-09T06:08:56;98550.78;;;11.64;90.97
75627;BME280;67372;49.404;11.034;2023-10-09T06:11:22;98556.22;;;11.76;90.87
75627;BME280;67372;49.404;11.034;2023-10-09T06:13:49;98556.63;;;11.86;90.78
75627;BME280;67372;49.404;11.034;2023-10-09T06:16:15;98558.81;;;11.96;90.43
75627;BME280;67372;49.404;11.034;2023-10-09T06:18:42;98562.66;;;12.07;90.04
75627;BME280;67372;49.404;11.034;2023-10-09T06:21:10;98546.72;;;12.18;89.54
75627;BME280;67372;49.404;11.034;2023-10-09T06:23:36;98553.63;;;12.33;89.36
75627;BME280;67372;49.404;11.034;2023-10-09T06:26:03;98551.25;;;12.43;88.97
75627;BME280;67372;49.404;11.034;2023-10-09T06:28:29;98552.59;;;12.52;88.45
75627;BME280;67372;49.404;11.034;2023-10-09T06:30:55;98544.91;;;12.62;88.29
75627;BME280;67372;49.404;11.034;2023-10-09T06:33:22;98545.44;;;12.71;88.28
75627;BME280;67372;49.404;11.034;2023-10-09T06:35:48;98542.66;;;12.77;88.08
75627;BME280;67372;49.404;11.034;2023-10-09T06:38:14;98543.44;;;12.84;87.86
75627;BME280;67372;49.404;11.034;2023-10-09T06:40:47;98556.53;;;12.93;87.51
75627;BME280;67372;49.404;11.034;2023-10-09T06:43:14;98553.78;;;12.99;87.93
75627;BME280;67372;49.404;11.034;2023-10-09T06:45:40;98555.13;;;13.08;87.22
75627;BME280;67372;49.404;11.034;2023-10-09T06:48:07;98556.47;;;13.17;86.91
75627;BME280;67372;49.404;11.034;2023-10-09T06:50:36;98554.13;;;13.28;86.75
75627;BME280;67372;49.404;11.034;2023-10-09T06:53:03;98553.22;;;13.34;86.06
75627;BME280;67372;49.404;11.034;2023-10-09T06:55:35;98549.38;;;13.41;86.15
75627;BME280;67372;49.404;11.034;2023-10-09T06:58:02;98553.84;;;13.47;86.06
75627;BME280;67372;49.404;11.034;2023-10-09T07:00:28;98550.06;;;13.55;85.92
75627;BME280;67372;49.404;11.034;2023-10-09T07:02:55;98549.25;;;13.66;85.78
75627;BME280;67372;49.404;11.034;2023-10-09T07:05:22;98550.81;;;13.74;85.36
75627;BME280;67372;49.404;11.034;2023-10-09T07:07:49;98565.44;;;13.90;85.79
75627;BME280;67372;49.404;11.034;2023-10-09T07:10:15;98561.28;;;14.05;85.37
75627;BME280;67372;49.404;11.034;2023-10-09T07:12:41;98561.81;;;14.26;85.15
75627;BME280;67372;49.404;11.034;2023-10-09T07:15:08;98563.78;;;14.42;84.59
75627;BME280;67372;49.404;11.034;2023-10-09T07:17:35;98573.31;;;14.56;84.57
75627;BME280;67372;49.404;11.034;2023-10-09T07:20:01;98566.66;;;14.70;83.89
75627;BME280;67372;49.404;11.034;2023-10-09T07:22:27;98569.34;;;14.82;83.56
75627;BME280;67372;49.404;11.034;2023-10-09T07:24:56;98563.25;;;14.98;83.06
75627;BME280;67372;49.404;11.034;2023-10-09T07:27:30;98563.34;;;15.15;82.54
75627;BME280;67372;49.404;11.034;2023-10-09T07:29:56;98564.81;;;15.34;82.76
75627;BME280;67372;49.404;11.034;2023-10-09T07:32:23;98567.31;;;15.53;82.06
75627;BME280;67372;49.404;11.034;2023-10-09T07:34:49;98572.00;;;15.69;81.31
75627;BME280;67372;49.404;11.034;2023-10-09T07:37:16;98588.19;;;15.86;80.91
75627;BME280;67372;49.404;11.034;2023-10-09T07:39:42;98586.00;;;16.00;80.47
75627;BME280;67372;49.404;11.034;2023-10-09T07:42:08;98593.53;;;16.14;79.74
75627;BME280;67372;49.404;11.034;2023-10-09T07:44:35;98598.09;;;16.31;79.21
75627;BME280;67372;49.404;11.034;2023-10-09T07:47:02;98590.03;;;16.47;78.85
75627;BME280;67372;49.404;11.034;2023-10-09T07:49:28;98589.00;;;16.65;78.45
75627;BME280;67372;49.404;11.034;2023-10-09T07:51:55;98599.31;;;16.85;77.59
75627;BME280;67372;49.404;11.034;2023-10-09T07:54:21;98600.06;;;17.02;76.84
75627;BME280;67372;49.404;11.034;2023-10-09T07:56:48;98600.59;;;17.21;76.80
75627;BME280;67372;49.404;11.034;2023-10-09T07:59:15;98602.19;;;17.39;76.16
75627;BME280;67372;49.404;11.034;2023-10-09T08:01:48;98595.13;;;17.55;75.34
75627;BME280;67372;49.404;11.034;2023-10-09T08:04:15;98601.25;;;17.72;75.03
75627;BME280;67372;49.404;11.034;2023-10-09T08:06:42;98601.44;;;17.87;73.90
75627;BME280;67372;49.404;11.034;2023-10-09T08:09:29;98602.19;;;18.04;73.36
75627;BME280;67372;49.404;11.034;2023-10-09T08:11:55;98613.38;;;18.18;72.80
75627;BME280;67372;49.404;11.034;2023-10-09T08:14:22;98609.97;;;18.28;72.52
75627;BME280;67372;49.404;11.034;2023-10-09T08:16:50;98606.28;;;18.39;71.52
75627;BME280;67372;49.404;11.034;2023-10-09T08:19:17;98606.13;;;18.51;71.77
75627;BME280;67372;49.404;11.034;2023-10-09T08:21:43;98604.63;;;18.65;71.63
75627;BME280;67372;49.404;11.034;2023-10-09T08:24:09;98605.81;;;18.79;71.40
75627;BME280;67372;49.404;11.034;2023-10-09T08:26:36;98605.94;;;18.94;70.85
75627;BME280;67372;49.404;11.034;2023-10-09T08:29:02;98601.69;;;19.09;70.53
75627;BME280;67372;49.404;11.034;2023-10-09T08:31:28;98602.31;;;19.21;69.29
75627;BME280;67372;49.404;11.034;2023-10-09T08:33:55;98609.41;;;19.37;68.73
75627;BME280;67372;49.404;11.034;2023-10-09T08:36:25;98613.88;;;19.58;68.03
75627;BME280;67372;49.404;11.034;2023-10-09T08:38:51;98610.16;;;19.75;66.73
75627;BME280;67372;49.404;11.034;2023-10-09T08:41:18;98605.88;;;19.94;66.52
75627;BME280;67372;49.404;11.034;2023-10-09T08:43:52;98610.53;;;20.14;65.40
75627;BME280;67372;49.404;11.034;2023-10-09T08:46:23;98610.28;;;20.31;64.12
75627;BME280;67372;49.404;11.034;2023-10-09T08:48:50;98624.44;;;20.48;62.29
75627;BME280;67372;49.404;11.034;2023-10-09T08:51:17;98623.88;;;20.51;61.13
75627;BME280;67372;49.404;11.034;2023-10-09T08:53:44;98622.81;;;20.62;59.14
75627;BME280;67372;49.404;11.034;2023-10-09T08:56:11;98627.44;;;20.62;59.42
75627;BME280;67372;49.404;11.034;2023-10-09T08:58:38;98623.91;;;20.61;60.46
75627;BME280;67372;49.404;11.034;2023-10-09T09:01:04;98633.09;;;20.70;59.71
75627;BME280;67372;49.404;11.034;2023-10-09T09:03:41;98631.75;;;20.78;56.57
75627;BME280;67372;49.404;11.034;2023-10-09T09:06:08;98630.13;;;20.77;55.73
75627;BME280;67372;49.404;11.034;2023-10-09T09:08:34;98622.81;;;20.72;57.26
75627;BME280;67372;49.404;11.034;2023-10-09T09:13:31;98625.78;;;20.91;56.59
75627;BME280;67372;49.404;11.034;2023-10-09T09:15:58;98627.13;;;20.94;56.84
75627;BME280;67372;49.404;11.034;2023-10-09T09:18:24;98620.31;;;21.11;56.68
75627;BME280;67372;49.404;11.034;2023-10-09T09:20:51;98620.84;;;21.29;55.03
75627;BME280;67372;49.404;11.034;2023-10-09T09:23:17;98625.44;;;21.23;54.27
75627;BME280;67372;49.404;11.034;2023-10-09T09:25:44;98617.06;;;21.14;55.55
75627;BME280;67372;49.404;11.034;2023-10-09T09:28:15;98623.03;;;21.11;55.13
75627;BME280;67372;49.404;11.034;2023-10-09T09:30:41;98624.66;;;21.12;53.82
75627;BME280;67372;49.404;11.034;2023-10-09T09:33:18;98623.31;;;21.00;53.96
75627;BME280;67372;49.404;11.034;2023-10-09T09:36:02;98614.13;;;20.86;54.08
75627;BME280;67372;49.404;11.034;2023-10-09T09:38:30;98636.38;;;20.88;53.84
75627;BME280;67372;49.404;11.034;2023-10-09T09:40:57;98639.63;;;20.74;54.03
75627;BME280;67372;49.404;11.034;2023-10-09T09:43:24;98635.56;;;20.67;54.56
75627;BME280;67372;49.404;11.034;2023-10-09T09:45:52;98639.34;;;20.61;54.39
75627;BME280;67372;49.404;11.034;2023-10-09T09:48:19;98654.00;;;20.60;54.57
75627;BME280;67372;49.404;11.034;2023-10-09T09:50:46;98647.47;;;20.45;55.30
75627;BME280;67372;49.404;11.034;2023-10-09T09:53:13;98644.75;;;20.45;55.58
75627;BME280;67372;49.404;11.034;2023-10-09T09:55:44;98652.63;;;20.42;56.12
75627;BME280;67372;49.404;11.034;2023-10-09T09:58:15;98654.25;;;20.48;55.50
75627;BME280;67372;49.404;11.034;2023-10-09T10:00:43;98651.25;;;20.49;56.19
75627;BME280;67372;49.404;11.034;2023-10-09T10:03:14;98656.94;;;20.43;56.91
75627;BME280;67372;49.404;11.034;2023-10-09T10:05:43;98645.84;;;20.44;57.90
75627;BME280;67372;49.404;11.034;2023-10-09T10:08:10;98652.63;;;20.52;58.45
75627;BME280;67372;49.404;11.034;2023-10-09T10:10:39;98652.63;;;20.62;57.81
75627;BME280;67372;49.404;11.034;2023-10-09T10:13:06;98647.22;;;20.72;58.17
75627;BME280;67372;49.404;11.034;2023-10-09T10:15:57;98652.66;;;20.82;57.36
75627;BME280;67372;49.404;11.034;2023-10-09T10:18:24;98657.22;;;20.97;56.07
75627;BME280;67372;49.404;11.034;2023-10-09T10:21:14;98652.34;;;21.04;54.66
75627;BME280;67372;49.404;11.034;2023-10-09T10:23:40;98654.78;;;21.01;54.25
75627;BME280;67372;49.404;11.034;2023-10-09T10:26:17;98647.22;;;20.82;55.34
75627;BME280;67372;49.404;11.034;2023-10-09T10:28:44;98646.38;;;20.77;55.96
75627;BME280;67372;49.404;11.034;2023-10-09T10:31:11;98646.13;;;20.73;56.51
75627;BME280;67372;49.404;11.034;2023-10-09T10:36:19;98653.97;;;20.75;54.58
75627;BME280;67372;49.404;11.034;2023-10-09T10:38:59;98657.78;;;20.79;54.93
75627;BME280;67372;49.404;11.034;2023-10-09T10:41:26;98647.47;;;20.76;55.30
75627;BME280;67372;49.404;11.034;2023-10-09T10:43:52;98639.88;;;20.68;54.98
75627;BME280;67372;49.404;11.034;2023-10-09T10:46:20;98630.38;;;20.55;55.87
75627;BME280;67372;49.404;11.034;2023-10-09T10:48:47;98613.03;;;20.46;57.29
75627;BME280;67372;49.404;11.034;2023-10-09T10:51:14;98621.72;;;20.48;57.68
75627;BME280;67372;49.404;11.034;2023-10-09T10:53:51;98617.09;;;20.48;58.09
75627;BME280;67372;49.404;11.034;2023-10-09T10:56:18;98620.88;;;20.58;59.08
75627;BME280;67372;49.404;11.034;2023-10-09T10:58:52;98611.44;;;20.65;58.98
75627;BME280;67372;49.404;11.034;2023-10-09T11:01:20;98604.91;;;20.76;58.42
75627;BME280;67372;49.404;11.034;2023-10-09T11:03:49;98594.88;;;20.77;58.68
75627;BME280;67372;49.404;11.034;2023-10-09T11:06:24;98590.00;;;20.74;59.63
75627;BME280;67372;49.404;11.034;2023-10-09T11:08:51;98583.50;;;20.70;59.44
75627;BME280;67372;49.404;11.034;2023-10-09T11:11:17;98589.44;;;20.72;59.57
75627;BME280;67372;49.404;11.034;2023-10-09T11:13:43;98597.84;;;20.75;59.54
75627;BME280;67372;49.404;11.034;2023-10-09T11:16:10;98598.41;;;20.82;59.06
75627;BME280;67372;49.404;11.034;2023-10-09T11:18:40;98584.84;;;20.82;57.97
75627;BME280;67372;49.404;11.034;2023-10-09T11:21:06;98584.81;;;20.93;58.24
75627;BME280;67372;49.404;11.034;2023-10-09T11:23:33;98591.56;;;21.00;58.16
75627;BME280;67372;49.404;11.034;2023-10-09T11:26:02;98589.63;;;21.21;57.27
75627;BME280;67372;49.404;11.034;2023-10-09T11:28:29;98580.13;;;21.34;57.42
75627;BME280;67372;49.404;11.034;2023-10-09T11:31:06;98589.59;;;21.41;56.99
75627;BME280;67372;49.404;11.034;2023-10-09T11:33:47;98594.19;;;21.46;55.85
75627;BME280;67372;49.404;11.034;2023-10-09T11:36:15;98593.88;;;21.53;54.74
75627;BME280;67372;49.404;11.034;2023-10-09T11:38:42;98593.94;;;21.42;55.08
75627;BME280;67372;49.404;11.034;2023-10-09T11:41:19;98600.19;;;21.43;54.53
75627;BME280;67372;49.404;11.034;2023-10-09T11:43:47;98615.41;;;21.29;55.09
75627;BME280;67372;49.404;11.034;2023-10-09T11:46:13;98607.28;;;21.19;55.99
75627;BME280;67372;49.404;11.034;2023-10-09T11:48:39;98603.19;;;21.21;55.72
75627;BME280;67372;49.404;11.034;2023-10-09T11:51:12;98589.38;;;21.28;55.24
75627;BME280;67372;49.404;11.034;2023-10-09T11:53:43;98594.78;;;21.28;55.58
75627;BME280;67372;49.404;11.034;2023-10-09T11:56:10;98597.22;;;21.29;55.74
75627;BME280;67372;49.404;11.034;2023-10-09T11:58:36;98597.50;;;21.33;55.24
75627;BME280;67372;49.404;11.034;2023-10-09T12:01:11;98613.47;;;21.44;54.32
75627;BME280;67372;49.404;11.034;2023-10-09T12:03:37;98634.16;;;21.35;54.23
75627;BME280;67372;49.404;11.034;2023-10-09T12:06:04;98659.66;;;21.14;53.68
75627;BME280;67372;49.404;11.034;2023-10-09T12:08:31;98674.88;;;20.90;54.55
75627;BME280;67372;49.404;11.034;2023-10-09T12:10:58;98689.22;;;20.80;54.41
75627;BME280;67372;49.404;11.034;2023-10-09T12:13:25;98688.69;;;20.63;55.13
75627;BME280;67372;49.404;11.034;2023-10-09T12:15:52;98696.50;;;20.39;56.12
75627;BME280;67372;49.404;11.034;2023-10-09T12:18:20;98694.25;;;20.15;56.63
75627;BME280;67372;49.404;11.034;2023-10-09T12:20:47;98683.09;;;20.07;56.93
75627;BME280;67372;49.404;11.034;2023-10-09T12:23:14;98671.19;;;20.03;56.41
75627;BME280;67372;49.404;11.034;2023-10-09T12:25:40;98658.44;;;19.98;57.03
75627;BME280;67372;49.404;11.034;2023-10-09T12:28:06;98643.25;;;19.97;57.19
75627;BME280;67372;49.404;11.034;2023-10-09T12:30:34;98613.19;;;19.93;57.82
75627;BME280;67372;49.404;11.034;2023-10-09T12:33:00;98576.09;;;19.94;58.22
75627;BME280;67372;49.404;11.034;2023-10-09T12:35:26;98554.97;;;19.96;58.42
75627;BME280;67372;49.404;11.034;2023-10-09T12:37:54;98530.88;;;20.10;58.37
75627;BME280;67372;49.404;11.034;2023-10-09T12:40:21;98513.00;;;20.24;58.18
75627;BME280;67372;49.404;11.034;2023-10-09T12:42:48;98502.47;;;20.43;57.76
75627;BME280;67372;49.404;11.034;2023-10-09T12:45:14;98503.00;;;20.60;57.68
75627;BME280;67372;49.404;11.034;2023-10-09T12:47:40;98516.50;;;20.70;56.91
75627;BME280;67372;49.404;11.034;2023-10-09T12:50:07;98524.38;;;20.82;56.01
75627;BME280;67372;49.404;11.034;2023-10-09T12:52:34;98507.47;;;21.00;56.84
75627;BME280;67372;49.404;11.034;2023-10-09T12:55:00;98479.50;;;21.05;55.38
75627;BME280;67372;49.404;11.034;2023-10-09T12:57:26;98470.25;;;21.16;54.98